ボゴタ の空港の天気 - METARとTAF

エルドラド国際空港(ボコダ) ( SKBO / BOG ) - コロンビア ボゴタ
飛行場実況気象(Metar)
観測時間08/17 06:00 COT (08/17 11:00 UTC)
風向・風速不定 1m/s
視程8000m
天気現象
少しの雲 雲底高度 520m
全天の8割程度の雲 雲底高度 2130m
気温10℃
湿度94%
気圧1029hPa
METARSKBO 171100Z VRB02KT 8000 FEW017 BKN070 10/09 A3038 NOSIG RMK HZ
過去の天気等 Google飛行場航空写真 Wunderground天気予報

過去48時間のMETAR

飛行場予報(TAF)
発表時間: 8/17 05:30 COT (8/17 10:30 UTC)
予報対象時間: 17日7時 COT ~ 18日7時 COT
風向・風速不定 1m/s
視程10km以上
全天の4割程度の雲 雲底高度 370m
全天の8割程度の雲 雲底高度 2440m
17日9時 COT ~ 17日11時 COT に徐々に
風向・風速西 4m/s
全天の8割程度の雲 雲底高度 460m
17日13時 COT ~ 17日16時 COT に 確率 40% で一時的に
視程4000m
天気現象雷雨
全天の4割程度の積乱雲 雲底高度 460m
全天の4割程度の雲 雲底高度 670m
17日19時 COT ~ 17日21時 COT に徐々に
風向・風速不定 2m/s
TAF SKBO 171030Z 1712/1812 VRB02KT 9999 SCT012 BKN080
BECMG 1714/1716 27008KT BKN015
PROB40 TEMPO 1718/1721 4000 TSRA SCT015CB SCT022
BECMG 1800/1802 VRB03KT TX19/1718Z TN10/1811Z